createdAt,value
2018-04-29T00:02:22.648Z,9.73
2018-04-29T00:04:51.747Z,9.00
2018-04-29T00:07:20.787Z,4.20
2018-04-29T00:09:49.044Z,4.07
2018-04-29T00:12:18.170Z,6.43
2018-04-29T00:14:46.450Z,3.80
2018-04-29T00:17:15.477Z,4.23
2018-04-29T00:19:44.505Z,5.10
2018-04-29T00:22:14.540Z,3.80
2018-04-29T00:24:43.397Z,4.77
2018-04-29T00:27:11.732Z,4.63
2018-04-29T00:29:40.002Z,4.50
2018-04-29T00:32:08.377Z,4.50
2018-04-29T00:34:36.639Z,8.23
2018-04-29T00:37:04.923Z,4.63
2018-04-29T00:39:33.175Z,4.30
2018-04-29T00:42:01.440Z,5.30
2018-04-29T00:44:29.716Z,3.57
2018-04-29T00:46:58.739Z,7.00
2018-04-29T00:49:26.996Z,6.53
2018-04-29T00:52:06.958Z,4.60
2018-04-29T00:54:36.047Z,5.93
2018-04-29T00:57:04.323Z,6.40
2018-04-29T00:59:32.682Z,5.47
2018-04-29T01:02:01.713Z,5.20
2018-04-29T01:04:30.068Z,4.83
2018-04-29T01:06:59.115Z,5.17
2018-04-29T01:09:27.490Z,5.23
2018-04-29T01:11:55.751Z,6.07
2018-04-29T01:14:24.986Z,5.47
2018-04-29T01:16:53.266Z,5.63
2018-04-29T01:19:22.378Z,5.90
2018-04-29T01:21:51.403Z,6.57
2018-04-29T01:24:19.681Z,5.80
2018-04-29T01:26:48.699Z,5.03
2018-04-29T01:29:17.080Z,5.67
2018-04-29T01:31:45.342Z,5.23
2018-04-29T01:34:13.588Z,8.33
2018-04-29T01:36:41.867Z,6.33
2018-04-29T01:39:10.169Z,7.03
2018-04-29T01:41:38.433Z,4.93
2018-04-29T01:44:06.823Z,6.10
2018-04-29T01:46:35.139Z,6.17
2018-04-29T01:49:03.496Z,6.17
2018-04-29T01:51:31.831Z,7.17
2018-04-29T01:54:00.094Z,7.40
2018-04-29T01:56:28.406Z,7.27
2018-04-29T01:58:56.747Z,7.27
2018-04-29T02:01:25.826Z,8.17
2018-04-29T02:03:54.117Z,7.07
2018-04-29T02:06:22.399Z,7.43
2018-04-29T02:08:50.706Z,6.03
2018-04-29T02:11:19.040Z,8.50
2018-04-29T02:13:48.068Z,8.57
2018-04-29T02:16:16.447Z,6.23
2018-04-29T02:18:44.704Z,6.73
2018-04-29T02:21:13.909Z,6.63
2018-04-29T02:23:43.671Z,5.17
2018-04-29T02:26:11.923Z,9.60
2018-04-29T02:28:41.051Z,6.37
2018-04-29T02:31:10.076Z,6.03
2018-04-29T02:33:38.367Z,8.10
2018-04-29T02:36:06.764Z,6.47
2018-04-29T02:38:35.014Z,9.40
2018-04-29T02:41:03.274Z,5.78
2018-04-29T02:43:31.715Z,7.30
2018-04-29T02:46:00.732Z,7.47
2018-04-29T02:48:29.792Z,6.60
2018-04-29T02:50:58.142Z,7.30
2018-04-29T02:53:26.430Z,8.82
2018-04-29T02:55:55.447Z,9.87
2018-04-29T02:58:23.836Z,8.57
2018-04-29T03:00:52.226Z,9.07
2018-04-29T03:03:20.482Z,8.00
2018-04-29T03:05:48.822Z,7.93
2018-04-29T03:08:17.079Z,7.50
2018-04-29T03:10:46.106Z,7.20
2018-04-29T03:13:14.430Z,6.37
2018-04-29T03:15:42.705Z,9.07
2018-04-29T03:18:11.080Z,8.25
2018-04-29T03:20:39.373Z,9.32
2018-04-29T03:23:07.664Z,7.53
2018-04-29T03:25:35.940Z,7.72
2018-04-29T03:28:04.227Z,8.70
2018-04-29T03:30:33.269Z,6.75
2018-04-29T03:33:01.642Z,7.60
2018-04-29T03:35:29.929Z,8.88
2018-04-29T03:37:58.208Z,8.25
2018-04-29T03:40:26.506Z,7.00
2018-04-29T03:42:55.609Z,6.47
2018-04-29T03:45:23.867Z,6.47
2018-04-29T03:47:52.145Z,6.13
2018-04-29T03:50:20.427Z,5.18
2018-04-29T03:52:48.711Z,7.40
2018-04-29T03:55:17.072Z,7.30
2018-04-29T03:58:03.869Z,7.47
2018-04-29T04:00:53.923Z,6.03
2018-04-29T04:03:39.847Z,5.87
2018-04-29T04:06:08.232Z,5.93
2018-04-29T04:08:36.587Z,8.97
2018-04-29T04:11:04.951Z,6.03
2018-04-29T04:13:33.266Z,8.73
2018-04-29T04:16:02.286Z,6.57
2018-04-29T04:18:30.568Z,7.90
2018-04-29T04:20:58.857Z,5.85
2018-04-29T04:23:27.971Z,5.20
2018-04-29T04:25:56.260Z,6.32
2018-04-29T04:28:24.588Z,7.20
2018-04-29T04:30:52.927Z,6.20
2018-04-29T04:33:22.054Z,6.03
2018-04-29T04:35:50.343Z,5.97
2018-04-29T04:38:18.621Z,5.10
2018-04-29T04:40:47.742Z,7.25
2018-04-29T04:43:16.559Z,6.82
2018-04-29T04:45:44.829Z,6.75
2018-04-29T04:48:13.100Z,5.80
2018-04-29T04:50:41.357Z,8.60
2018-04-29T04:53:09.706Z,6.15
2018-04-29T04:55:38.794Z,6.43
2018-04-29T04:58:07.968Z,6.53
2018-04-29T05:00:36.187Z,7.73
2018-04-29T05:03:05.246Z,5.72
2018-04-29T05:05:33.510Z,6.97
2018-04-29T05:08:01.805Z,7.83
2018-04-29T05:10:30.075Z,4.73
2018-04-29T05:12:59.213Z,6.90
2018-04-29T05:15:27.464Z,6.00
2018-04-29T05:17:56.507Z,5.33
2018-04-29T05:20:24.799Z,9.95
2018-04-29T05:22:53.186Z,5.33
2018-04-29T05:25:21.577Z,5.50
2018-04-29T05:27:49.837Z,5.87
2018-04-29T05:30:18.879Z,7.03
2018-04-29T05:32:47.167Z,6.97
2018-04-29T05:35:15.437Z,4.70
2018-04-29T05:37:44.477Z,8.77
2018-04-29T05:40:12.755Z,7.50
2018-04-29T05:42:41.044Z,4.97
2018-04-29T05:45:09.360Z,7.43
2018-04-29T05:47:37.636Z,6.07
2018-04-29T05:50:06.025Z,5.87
2018-04-29T05:52:34.305Z,8.77
2018-04-29T05:55:02.688Z,6.53
2018-04-29T05:57:31.710Z,6.20
2018-04-29T06:00:02.704Z,7.37
2018-04-29T06:02:30.971Z,7.03
2018-04-29T06:04:59.237Z,8.43
2018-04-29T06:07:28.275Z,6.00
2018-04-29T06:09:56.535Z,7.40
2018-04-29T06:12:25.552Z,5.70
2018-04-29T06:14:53.826Z,5.07
2018-04-29T06:17:22.843Z,7.20
2018-04-29T06:19:51.106Z,7.50
2018-04-29T06:22:19.514Z,9.70
2018-04-29T06:24:48.631Z,8.20
2018-04-29T06:27:17.732Z,6.07
2018-04-29T06:29:46.955Z,6.87
2018-04-29T06:32:15.978Z,5.97
2018-04-29T06:34:44.461Z,5.47
2018-04-29T06:37:12.855Z,6.20
2018-04-29T06:39:41.107Z,7.57
2018-04-29T06:42:09.433Z,6.60
2018-04-29T06:44:38.543Z,7.13
2018-04-29T06:47:06.858Z,6.47
2018-04-29T06:49:35.115Z,6.55
2018-04-29T06:52:03.391Z,6.43
2018-04-29T06:54:32.474Z,7.40
2018-04-29T06:57:01.488Z,8.57
2018-04-29T06:59:29.762Z,6.37
2018-04-29T07:01:58.112Z,6.37
2018-04-29T07:04:26.382Z,11.43
2018-04-29T07:06:55.512Z,6.57
2018-04-29T07:09:24.547Z,8.37
2018-04-29T07:11:52.807Z,11.10
2018-04-29T07:14:21.151Z,10.13
2018-04-29T07:16:50.927Z,7.33
2018-04-29T07:19:19.212Z,10.23
2018-04-29T07:21:47.485Z,7.67
2018-04-29T07:24:15.794Z,13.93
2018-04-29T07:26:44.902Z,8.30
2018-04-29T07:29:13.939Z,9.57
2018-04-29T07:31:42.295Z,7.47
2018-04-29T07:34:11.396Z,8.07
2018-04-29T07:36:39.809Z,7.30
2018-04-29T07:39:08.087Z,9.90
2018-04-29T07:41:36.362Z,8.63
2018-04-29T07:44:05.451Z,10.43
2018-04-29T07:46:33.739Z,10.97
2018-04-29T07:49:02.007Z,7.97
2018-04-29T07:51:30.284Z,7.72
2018-04-29T07:53:58.546Z,10.00
2018-04-29T07:56:27.563Z,9.10
2018-04-29T07:58:55.827Z,8.53
2018-04-29T08:01:24.843Z,7.97
2018-04-29T08:03:53.876Z,11.13
2018-04-29T08:06:22.166Z,9.30
2018-04-29T08:08:50.469Z,9.70
2018-04-29T08:11:19.557Z,9.40
2018-04-29T08:13:47.857Z,8.17
2018-04-29T08:16:16.129Z,8.93
2018-04-29T08:18:44.434Z,8.53
2018-04-29T08:21:12.704Z,8.53
2018-04-29T08:23:42.543Z,8.43
2018-04-29T08:26:10.841Z,7.53
2018-04-29T08:28:39.149Z,11.23
2018-04-29T08:31:07.520Z,8.27
2018-04-29T08:33:35.807Z,9.77
2018-04-29T08:36:04.843Z,10.10
2018-04-29T08:38:33.881Z,10.60
2018-04-29T08:41:03.652Z,9.97
2018-04-29T08:43:31.966Z,8.27
2018-04-29T08:46:00.247Z,10.87
2018-04-29T08:48:28.626Z,12.13
2018-04-29T08:50:56.939Z,9.60
2018-04-29T08:53:25.300Z,9.57
2018-04-29T08:55:54.357Z,15.73
2018-04-29T08:58:22.622Z,14.73
2018-04-29T09:00:50.892Z,20.30
2018-04-29T09:03:19.287Z,14.57
2018-04-29T09:05:47.656Z,27.00
2018-04-29T09:08:15.971Z,11.63
2018-04-29T09:10:44.262Z,11.80
2018-04-29T09:13:12.658Z,13.43
2018-04-29T09:15:40.949Z,12.80
2018-04-29T09:18:09.501Z,12.20
2018-04-29T09:20:38.041Z,11.80
2018-04-29T09:23:06.328Z,11.00
2018-04-29T09:25:34.728Z,11.10
2018-04-29T09:28:03.036Z,12.30
2018-04-29T09:30:31.440Z,10.70
2018-04-29T09:32:59.774Z,9.13
2018-04-29T09:35:28.809Z,7.77
2018-04-29T09:37:57.206Z,11.20
2018-04-29T09:40:25.454Z,9.97
2018-04-29T09:42:53.721Z,7.50
2018-04-29T09:45:21.977Z,9.17
2018-04-29T09:47:50.232Z,10.43
2018-04-29T09:50:19.270Z,8.90
2018-04-29T09:52:47.631Z,11.43
2018-04-29T09:55:16.684Z,11.77
2018-04-29T09:57:44.939Z,8.33
2018-04-29T10:00:14.059Z,9.87
2018-04-29T10:02:48.191Z,9.93
2018-04-29T10:05:16.465Z,8.13
2018-04-29T10:07:45.512Z,7.47
2018-04-29T10:10:13.800Z,8.57
2018-04-29T10:12:42.044Z,9.57
2018-04-29T10:15:11.175Z,7.47
2018-04-29T10:17:39.513Z,7.83
2018-04-29T10:20:07.762Z,7.40
2018-04-29T10:22:36.057Z,6.80
2018-04-29T10:25:04.330Z,7.07
2018-04-29T10:27:33.837Z,6.67
2018-04-29T10:30:02.857Z,7.17
2018-04-29T10:32:31.128Z,5.17
2018-04-29T10:35:00.260Z,10.37
2018-04-29T10:37:29.267Z,8.63
2018-04-29T10:39:57.582Z,12.47
2018-04-29T10:42:25.833Z,6.83
2018-04-29T10:44:54.138Z,4.40
2018-04-29T10:47:22.429Z,6.87
2018-04-29T10:49:51.542Z,8.65
2018-04-29T10:52:19.798Z,7.67
2018-04-29T10:54:49.580Z,5.00
2018-04-29T10:57:17.836Z,5.67
2018-04-29T10:59:46.111Z,4.70
2018-04-29T11:02:15.140Z,4.50
2018-04-29T11:04:43.420Z,4.50
2018-04-29T11:07:12.541Z,7.23
2018-04-29T11:09:41.640Z,7.93
2018-04-29T11:12:10.765Z,4.73
2018-04-29T11:14:39.136Z,5.43
2018-04-29T11:17:08.280Z,5.30
2018-04-29T11:19:36.545Z,6.57
2018-04-29T11:22:05.770Z,5.77
2018-04-29T11:24:33.967Z,5.83
2018-04-29T11:27:02.233Z,5.27
2018-04-29T11:29:31.243Z,3.70
2018-04-29T11:31:59.541Z,5.37
2018-04-29T11:34:28.635Z,6.20
2018-04-29T11:36:57.762Z,3.37
2018-04-29T11:39:26.961Z,5.40
2018-04-29T11:41:56.127Z,5.45
2018-04-29T11:44:24.410Z,4.00
2018-04-29T11:46:52.759Z,3.63
2018-04-29T11:49:21.770Z,3.87
2018-04-29T11:51:50.061Z,4.07
2018-04-29T11:54:19.079Z,4.30
2018-04-29T11:56:47.353Z,3.67
2018-04-29T11:59:16.448Z,4.70
2018-04-29T12:01:45.478Z,4.50
2018-04-29T12:04:13.785Z,4.77
2018-04-29T12:06:42.056Z,3.90
2018-04-29T12:09:11.091Z,3.37
2018-04-29T12:11:39.382Z,3.90
2018-04-29T12:14:07.716Z,3.70
2018-04-29T12:16:35.982Z,5.27
2018-04-29T12:19:04.233Z,4.40
2018-04-29T12:21:32.488Z,5.47
2018-04-29T12:24:01.607Z,5.07
2018-04-29T12:26:30.730Z,4.57
2018-04-29T12:28:59.731Z,7.53
2018-04-29T12:31:27.999Z,4.22
2018-04-29T12:33:57.023Z,3.83
2018-04-29T12:36:26.073Z,5.27
2018-04-29T12:38:54.361Z,3.77
2018-04-29T12:41:22.716Z,3.90
2018-04-29T12:43:51.840Z,3.93
2018-04-29T12:46:20.129Z,7.97
2018-04-29T12:48:49.156Z,4.30
2018-04-29T12:51:17.391Z,4.47
2018-04-29T12:53:45.723Z,4.65
2018-04-29T12:56:13.978Z,6.50
2018-04-29T12:58:42.230Z,6.33
2018-04-29T13:01:10.633Z,5.13
2018-04-29T13:03:38.921Z,4.53
2018-04-29T13:06:07.275Z,4.77
2018-04-29T13:08:35.658Z,3.90
2018-04-29T13:11:04.771Z,6.73
2018-04-29T13:13:33.793Z,3.63
2018-04-29T13:16:02.070Z,4.30
2018-04-29T13:18:31.278Z,4.10
2018-04-29T13:21:00.954Z,5.57
2018-04-29T13:23:29.252Z,4.00
2018-04-29T13:25:57.515Z,3.40
2018-04-29T13:28:25.798Z,3.47
2018-04-29T13:30:54.203Z,4.47
2018-04-29T13:33:22.457Z,5.70
2018-04-29T13:35:51.465Z,4.27
2018-04-29T13:38:20.498Z,30.03
2018-04-29T13:40:48.761Z,13.17
2018-04-29T13:43:17.012Z,4.20
2018-04-29T13:45:45.291Z,3.23
2018-04-29T13:48:13.663Z,5.70
2018-04-29T13:50:41.941Z,9.67
2018-04-29T13:53:11.061Z,6.70
2018-04-29T13:55:40.117Z,4.60
2018-04-29T13:58:08.396Z,3.37
2018-04-29T14:00:36.688Z,6.00
2018-04-29T14:03:04.959Z,4.93
2018-04-29T14:05:33.200Z,5.17
2018-04-29T14:08:02.250Z,4.10
2018-04-29T14:10:30.611Z,6.70
2018-04-29T14:12:58.880Z,6.70
2018-04-29T14:15:27.838Z,3.40
2018-04-29T14:17:56.121Z,4.10
2018-04-29T14:20:25.151Z,4.73
2018-04-29T14:22:53.507Z,3.40
2018-04-29T14:25:22.632Z,8.10
2018-04-29T14:27:50.871Z,4.80
2018-04-29T14:30:19.210Z,4.43
2018-04-29T14:32:48.257Z,4.67
2018-04-29T14:35:16.516Z,3.17
2018-04-29T14:37:44.787Z,7.13
2018-04-29T14:40:13.188Z,6.77
2018-04-29T14:42:42.327Z,3.60
2018-04-29T14:45:10.748Z,5.53
2018-04-29T14:47:40.612Z,4.23
2018-04-29T14:50:10.543Z,5.57
2018-04-29T14:52:38.859Z,4.83
2018-04-29T14:55:07.261Z,8.17
2018-04-29T14:57:35.727Z,5.00
2018-04-29T15:00:04.832Z,13.53
2018-04-29T15:02:33.859Z,7.47
2018-04-29T15:05:02.175Z,9.73
2018-04-29T15:07:30.546Z,6.23
2018-04-29T15:09:58.968Z,8.90
2018-04-29T15:12:27.264Z,7.30
2018-04-29T15:14:55.536Z,5.87
2018-04-29T15:17:23.878Z,6.17
2018-04-29T15:19:53.003Z,5.50
2018-04-29T15:22:22.113Z,6.00
2018-04-29T15:24:51.120Z,6.00
2018-04-29T15:27:20.159Z,5.77
2018-04-29T15:29:48.409Z,6.17
2018-04-29T15:32:17.547Z,4.93
2018-04-29T15:34:45.788Z,5.50
2018-04-29T15:37:14.067Z,5.40
2018-04-29T15:39:42.349Z,5.33
2018-04-29T15:42:10.738Z,8.65
2018-04-29T15:44:39.903Z,7.73
2018-04-29T15:47:08.298Z,6.97
2018-04-29T15:49:37.410Z,7.70
2018-04-29T15:52:05.677Z,8.00
2018-04-29T15:54:34.906Z,7.00
2018-04-29T15:57:03.899Z,8.03
2018-04-29T15:59:33.124Z,9.80
2018-04-29T16:02:02.242Z,10.87
2018-04-29T16:04:30.507Z,13.82
2018-04-29T16:06:59.558Z,8.50
2018-04-29T16:09:27.822Z,11.63
2018-04-29T16:11:56.067Z,10.07
2018-04-29T16:14:24.346Z,6.83
2018-04-29T16:16:53.885Z,8.70
2018-04-29T16:19:23.749Z,10.10
2018-04-29T16:21:52.020Z,8.37
2018-04-29T16:24:21.049Z,6.87
2018-04-29T16:26:49.299Z,9.70
2018-04-29T16:29:18.355Z,7.40
2018-04-29T16:31:47.448Z,7.83
2018-04-29T16:34:16.792Z,10.77
2018-04-29T16:36:45.075Z,8.03
2018-04-29T16:39:13.455Z,7.03
2018-04-29T16:41:42.695Z,10.10
2018-04-29T16:44:11.007Z,8.97
2018-04-29T16:46:40.011Z,7.90
2018-04-29T16:49:08.358Z,7.50
2018-04-29T16:51:36.752Z,8.73
2018-04-29T16:54:05.122Z,8.90
2018-04-29T16:56:34.264Z,11.07
2018-04-29T16:59:02.631Z,8.00
2018-04-29T17:01:33.466Z,6.03
2018-04-29T17:04:01.879Z,6.72
2018-04-29T17:06:30.991Z,8.03
2018-04-29T17:08:59.346Z,8.53
2018-04-29T17:11:27.732Z,10.03
2018-04-29T17:13:55.999Z,10.40
2018-04-29T17:16:24.451Z,8.83
2018-04-29T17:18:53.509Z,8.13
2018-04-29T17:21:21.955Z,7.90
2018-04-29T17:23:50.325Z,11.20
2018-04-29T17:26:20.835Z,5.97
2018-04-29T17:28:53.815Z,7.43
2018-04-29T17:31:23.012Z,10.80
2018-04-29T17:33:54.250Z,7.10
2018-04-29T17:36:23.308Z,10.33
2018-04-29T17:38:51.680Z,6.60
2018-04-29T17:41:20.079Z,10.50
2018-04-29T17:43:48.475Z,6.57
2018-04-29T17:46:16.967Z,7.73
2018-04-29T17:48:45.617Z,16.17
2018-04-29T17:51:13.987Z,10.70
2018-04-29T17:53:43.386Z,13.10
2018-04-29T17:56:11.869Z,5.73
2018-04-29T17:58:40.319Z,10.20
2018-04-29T18:01:08.677Z,9.23
2018-04-29T18:03:37.003Z,7.50
2018-04-29T18:06:05.425Z,10.73
2018-04-29T18:08:33.677Z,9.93
2018-04-29T18:11:01.945Z,13.23
2018-04-29T18:13:30.204Z,12.00
2018-04-29T18:15:58.484Z,9.20
2018-04-29T18:18:26.770Z,11.13
2018-04-29T18:20:55.883Z,7.73
2018-04-29T18:23:24.147Z,7.90
2018-04-29T18:25:53.284Z,7.67
2018-04-29T18:28:21.551Z,9.07
2018-04-29T18:30:50.580Z,8.50
2018-04-29T18:33:19.025Z,7.83
2018-04-29T18:35:47.268Z,9.97
2018-04-29T18:38:15.513Z,8.03
2018-04-29T18:40:43.783Z,9.73
2018-04-29T18:43:12.132Z,8.70
2018-04-29T18:45:41.549Z,8.97
2018-04-29T18:48:10.934Z,8.47
2018-04-29T18:50:41.834Z,8.53
2018-04-29T18:53:10.466Z,7.53
2018-04-29T18:55:39.468Z,8.93
2018-04-29T18:58:09.100Z,6.17
2018-04-29T19:00:37.555Z,7.00
2018-04-29T19:03:06.039Z,7.20
2018-04-29T19:05:59.251Z,9.07
2018-04-29T19:08:27.523Z,10.13
2018-04-29T19:10:56.702Z,9.77
2018-04-29T19:13:26.026Z,8.87
2018-04-29T19:15:55.104Z,10.40
2018-04-29T19:18:23.349Z,8.40
2018-04-29T19:20:51.609Z,9.47
2018-04-29T19:23:19.864Z,6.28
2018-04-29T19:25:48.260Z,8.53
2018-04-29T19:28:16.550Z,8.90
2018-04-29T19:30:44.873Z,8.43
2018-04-29T19:33:13.165Z,11.17
2018-04-29T19:35:49.494Z,8.03
2018-04-29T19:38:24.609Z,9.00
2018-04-29T19:40:54.014Z,8.83
2018-04-29T19:43:24.551Z,7.63
2018-04-29T19:45:54.219Z,6.57
2018-04-29T19:48:25.322Z,8.57
2018-04-29T19:50:53.632Z,8.70
2018-04-29T19:53:21.925Z,7.53
2018-04-29T19:55:52.905Z,6.37
2018-04-29T19:58:23.353Z,7.77
2018-04-29T20:00:53.779Z,6.90
2018-04-29T20:03:23.938Z,7.47
2018-04-29T20:05:54.159Z,5.93
2018-04-29T20:08:24.043Z,8.43
2018-04-29T20:10:53.221Z,7.60
2018-04-29T20:13:22.159Z,9.27
2018-04-29T20:15:51.196Z,8.67
2018-04-29T20:18:19.487Z,8.27
2018-04-29T20:20:49.564Z,10.35
2018-04-29T20:23:20.467Z,8.77
2018-04-29T20:25:48.965Z,5.17
2018-04-29T20:28:18.124Z,9.17
2018-04-29T20:30:47.157Z,7.30
2018-04-29T20:33:15.434Z,9.40
2018-04-29T20:35:44.468Z,6.37
2018-04-29T20:38:12.843Z,10.30
2018-04-29T20:40:41.247Z,5.20
2018-04-29T20:43:10.371Z,6.83
2018-04-29T20:45:38.958Z,7.23
2018-04-29T20:48:07.975Z,5.57
2018-04-29T20:50:36.929Z,7.13
2018-04-29T20:53:06.386Z,7.63
2018-04-29T20:55:34.642Z,6.70
2018-04-29T20:58:04.408Z,8.03
2018-04-29T21:00:32.769Z,8.53
2018-04-29T21:03:01.081Z,8.63
2018-04-29T21:05:30.237Z,5.63
2018-04-29T21:07:59.315Z,6.27
2018-04-29T21:10:27.616Z,6.83
2018-04-29T21:12:55.861Z,6.00
2018-04-29T21:15:24.954Z,5.57
2018-04-29T21:17:53.503Z,7.37
2018-04-29T21:20:21.834Z,6.97
2018-04-29T21:22:50.185Z,6.30
2018-04-29T21:25:18.441Z,8.87
2018-04-29T21:27:47.469Z,6.63
2018-04-29T21:30:15.773Z,5.53
2018-04-29T21:32:44.029Z,7.63
2018-04-29T21:35:13.174Z,6.80
2018-04-29T21:37:41.476Z,7.07
2018-04-29T21:40:09.817Z,6.37
2018-04-29T21:42:38.943Z,6.00
2018-04-29T21:45:07.250Z,7.77
2018-04-29T21:47:35.522Z,9.80
2018-04-29T21:50:04.633Z,7.33
2018-04-29T21:52:33.964Z,9.47
2018-04-29T21:55:02.332Z,8.80
2018-04-29T21:57:31.438Z,9.07
2018-04-29T22:00:00.470Z,7.63
2018-04-29T22:02:28.955Z,8.90
2018-04-29T22:04:58.012Z,9.43
2018-04-29T22:07:26.458Z,11.20
2018-04-29T22:09:54.703Z,8.57
2018-04-29T22:12:22.983Z,7.87
2018-04-29T22:14:51.372Z,11.57
2018-04-29T22:17:19.799Z,13.10
2018-04-29T22:19:48.187Z,23.43
2018-04-29T22:22:17.323Z,28.17
2018-04-29T22:24:46.340Z,30.00
2018-04-29T22:27:14.621Z,34.57
2018-04-29T22:29:42.879Z,37.53
2018-04-29T22:32:11.962Z,42.72
2018-04-29T22:34:40.243Z,43.83
2018-04-29T22:37:09.919Z,45.93
2018-04-29T22:39:38.120Z,47.60
2018-04-29T22:42:06.376Z,49.37
2018-04-29T22:44:34.665Z,55.28
2018-04-29T22:47:02.980Z,64.10
2018-04-29T22:49:31.244Z,67.50
2018-04-29T22:51:59.534Z,74.87
2018-04-29T22:54:27.861Z,75.72
2018-04-29T22:56:56.875Z,80.40
2018-04-29T22:59:25.164Z,85.53
2018-04-29T23:01:53.427Z,85.57
2018-04-29T23:04:22.462Z,88.77
2018-04-29T23:06:50.781Z,83.13
2018-04-29T23:09:19.051Z,85.37
2018-04-29T23:11:47.340Z,90.57
2018-04-29T23:14:15.725Z,84.20
2018-04-29T23:16:44.001Z,92.90
2018-04-29T23:19:13.015Z,86.07
2018-04-29T23:21:42.289Z,81.87
2018-04-29T23:24:10.545Z,80.80
2018-04-29T23:26:38.815Z,81.37
2018-04-29T23:29:07.084Z,83.70
2018-04-29T23:31:35.344Z,73.07
2018-04-29T23:34:03.607Z,88.63
2018-04-29T23:36:31.914Z,81.07
2018-04-29T23:39:00.195Z,77.30
2018-04-29T23:41:28.439Z,75.70
2018-04-29T23:43:57.915Z,76.17
2018-04-29T23:46:26.187Z,93.60
2018-04-29T23:48:54.451Z,80.43
2018-04-29T23:51:22.731Z,80.83
2018-04-29T23:53:51.747Z,68.47
2018-04-29T23:56:20.007Z,63.10
2018-04-29T23:58:49.065Z,67.43
